createdAt,value
2023-05-25T00:01:00.529Z,2.20
2023-05-25T00:03:31.328Z,3.08
2023-05-25T00:06:02.391Z,2.40
2023-05-25T00:08:30.316Z,2.63
2023-05-25T00:10:58.205Z,2.60
2023-05-25T00:13:26.023Z,3.08
2023-05-25T00:15:53.820Z,3.17
2023-05-25T00:18:21.808Z,3.63
2023-05-25T00:20:49.571Z,2.42
2023-05-25T00:23:18.686Z,2.83
2023-05-25T00:25:46.624Z,3.40
2023-05-25T00:28:14.497Z,2.58
2023-05-25T00:30:42.320Z,2.90
2023-05-25T00:33:10.660Z,3.00
2023-05-25T00:35:38.545Z,3.13
2023-05-25T00:38:06.280Z,2.45
2023-05-25T00:40:36.748Z,2.67
2023-05-25T00:43:04.541Z,3.28
2023-05-25T00:45:32.312Z,3.28
2023-05-25T00:48:01.480Z,2.60
2023-05-25T00:50:38.562Z,3.45
2023-05-25T00:53:07.159Z,3.63
2023-05-25T00:55:38.345Z,2.90
2023-05-25T00:58:06.689Z,2.90
2023-05-25T01:00:35.957Z,2.33
2023-05-25T01:03:11.789Z,3.25
2023-05-25T01:05:45.121Z,3.53
2023-05-25T01:08:15.110Z,2.55
2023-05-25T01:10:47.021Z,3.10
2023-05-25T01:13:18.364Z,3.05
2023-05-25T01:15:46.547Z,3.08
2023-05-25T01:18:16.053Z,2.92
2023-05-25T01:21:13.000Z,2.55
2023-05-25T01:23:45.269Z,2.72
2023-05-25T01:26:16.645Z,3.42
2023-05-25T01:28:51.109Z,3.05
2023-05-25T01:31:21.881Z,4.35
2023-05-25T01:33:51.543Z,3.38
2023-05-25T01:36:20.941Z,3.17
2023-05-25T01:38:49.766Z,3.55
2023-05-25T01:41:17.543Z,3.22
2023-05-25T01:43:45.599Z,3.40
2023-05-25T01:46:19.816Z,3.58
2023-05-25T01:48:55.922Z,3.13
2023-05-25T01:51:33.367Z,3.00
2023-05-25T01:54:08.505Z,3.33
2023-05-25T01:56:37.234Z,4.03
2023-05-25T01:59:07.663Z,3.42
2023-05-25T02:01:37.581Z,3.90
2023-05-25T02:04:05.884Z,3.70
2023-05-25T02:06:36.879Z,3.63
2023-05-25T02:09:05.049Z,4.68
2023-05-25T02:11:32.793Z,3.80
2023-05-25T02:14:00.554Z,3.80
2023-05-25T02:16:29.912Z,3.45
2023-05-25T02:18:59.161Z,3.75
2023-05-25T02:21:26.985Z,3.30
2023-05-25T02:23:58.096Z,4.03
2023-05-25T02:26:26.425Z,3.97
2023-05-25T02:28:54.280Z,3.30
2023-05-25T02:31:22.126Z,3.42
2023-05-25T02:33:49.918Z,3.00
2023-05-25T02:36:17.649Z,5.57
2023-05-25T02:38:45.935Z,2.88
2023-05-25T02:41:16.479Z,3.88
2023-05-25T02:43:44.321Z,4.55
2023-05-25T02:46:12.067Z,3.03
2023-05-25T02:48:40.040Z,3.78
2023-05-25T02:51:07.782Z,4.15
2023-05-25T02:53:35.540Z,3.10
2023-05-25T02:56:03.951Z,4.03
2023-05-25T02:58:33.167Z,3.22
2023-05-25T03:01:01.236Z,3.45
2023-05-25T03:03:29.204Z,3.45
2023-05-25T03:05:58.427Z,2.92
2023-05-25T03:08:26.217Z,4.15
2023-05-25T03:10:54.020Z,3.80
2023-05-25T03:13:21.744Z,3.38
2023-05-25T03:15:51.072Z,3.42
2023-05-25T03:18:19.021Z,3.60
2023-05-25T03:20:46.841Z,3.72
2023-05-25T03:23:14.786Z,3.40
2023-05-25T03:25:42.788Z,2.95
2023-05-25T03:28:10.843Z,3.45
2023-05-25T03:30:38.603Z,3.50
2023-05-25T03:33:07.778Z,3.60
2023-05-25T03:35:35.490Z,3.42
2023-05-25T03:38:03.224Z,3.88
2023-05-25T03:40:31.044Z,4.03
2023-05-25T03:42:58.804Z,4.20
2023-05-25T03:45:26.543Z,3.78
2023-05-25T03:47:54.323Z,3.58
2023-05-25T03:50:23.504Z,2.90
2023-05-25T03:52:51.285Z,3.20
2023-05-25T03:55:19.539Z,2.95
2023-05-25T03:57:47.295Z,3.47
2023-05-25T04:00:16.891Z,4.70
2023-05-25T04:02:44.868Z,3.55
2023-05-25T04:05:12.633Z,3.50
2023-05-25T04:07:41.748Z,3.95
2023-05-25T04:10:10.037Z,4.50
2023-05-25T04:12:38.527Z,3.22
2023-05-25T04:15:09.147Z,2.88
2023-05-25T04:17:39.652Z,4.65
2023-05-25T04:20:09.838Z,3.47
2023-05-25T04:22:38.927Z,4.43
2023-05-25T04:25:08.930Z,3.42
2023-05-25T04:27:36.697Z,3.80
2023-05-25T04:30:04.836Z,4.25
2023-05-25T04:32:32.871Z,3.83
2023-05-25T04:35:00.642Z,4.65
2023-05-25T04:37:29.043Z,4.30
2023-05-25T04:39:57.687Z,4.13
2023-05-25T04:42:27.021Z,4.15
2023-05-25T04:44:55.775Z,3.70
2023-05-25T04:47:24.939Z,4.47
2023-05-25T04:49:52.955Z,3.78
2023-05-25T04:52:20.718Z,4.63
2023-05-25T04:54:48.506Z,3.92
2023-05-25T04:57:16.410Z,4.90
2023-05-25T04:59:45.761Z,4.82
2023-05-25T05:02:13.718Z,4.45
2023-05-25T05:04:42.382Z,5.00
2023-05-25T05:07:10.177Z,4.35
2023-05-25T05:09:37.890Z,5.07
2023-05-25T05:12:06.309Z,4.55
2023-05-25T05:14:34.033Z,4.18
2023-05-25T05:17:03.483Z,3.53
2023-05-25T05:19:31.405Z,4.50
2023-05-25T05:21:59.133Z,4.00
2023-05-25T05:24:27.253Z,3.95
2023-05-25T05:26:58.967Z,4.28
2023-05-25T05:29:28.651Z,4.20
2023-05-25T05:31:56.765Z,3.83
2023-05-25T05:34:25.983Z,4.28
2023-05-25T05:36:57.894Z,4.57
2023-05-25T05:39:27.092Z,5.03
2023-05-25T05:41:54.868Z,4.57
2023-05-25T05:44:26.014Z,4.22
2023-05-25T05:47:01.145Z,5.25
2023-05-25T05:49:31.751Z,4.57
2023-05-25T05:51:59.935Z,4.40
2023-05-25T05:54:28.615Z,4.90
2023-05-25T05:56:56.431Z,3.85
2023-05-25T05:59:24.321Z,3.80
2023-05-25T06:01:52.156Z,4.47
2023-05-25T06:04:20.337Z,4.38
2023-05-25T06:06:49.455Z,4.13
2023-05-25T06:09:17.280Z,4.82
2023-05-25T06:11:45.253Z,3.67
2023-05-25T06:14:12.997Z,4.50
2023-05-25T06:16:40.895Z,4.28
2023-05-25T06:19:08.729Z,3.47
2023-05-25T06:21:36.990Z,5.05
2023-05-25T06:24:07.177Z,5.82
2023-05-25T06:26:34.958Z,5.35
2023-05-25T06:29:02.895Z,4.85
2023-05-25T06:31:30.901Z,4.63
2023-05-25T06:33:58.781Z,4.75
2023-05-25T06:36:27.485Z,4.55
2023-05-25T06:38:55.474Z,5.32
2023-05-25T06:41:24.602Z,5.32
2023-05-25T06:43:52.400Z,6.20
2023-05-25T06:46:21.525Z,6.28
2023-05-25T06:48:49.339Z,6.32
2023-05-25T06:51:17.094Z,7.07
2023-05-25T06:53:45.264Z,5.80
2023-05-25T06:56:12.980Z,5.03
2023-05-25T06:58:42.174Z,6.00
2023-05-25T07:01:09.894Z,8.38
2023-05-25T07:03:38.667Z,7.15
2023-05-25T07:06:07.396Z,6.40
2023-05-25T07:08:35.316Z,6.60
2023-05-25T07:11:03.051Z,7.45
2023-05-25T07:13:30.893Z,7.45
2023-05-25T07:16:00.023Z,7.90
2023-05-25T07:18:27.884Z,6.10
2023-05-25T07:20:55.773Z,6.90
2023-05-25T07:23:27.076Z,6.22
2023-05-25T07:25:56.510Z,5.68
2023-05-25T07:28:24.314Z,6.68
2023-05-25T07:30:52.091Z,6.40
2023-05-25T07:33:22.033Z,7.03
2023-05-25T07:35:51.244Z,7.07
2023-05-25T07:38:19.013Z,6.22
2023-05-25T07:40:47.497Z,6.32
2023-05-25T07:43:15.466Z,7.07
2023-05-25T07:45:44.370Z,6.28
2023-05-25T07:48:19.077Z,5.72
2023-05-25T07:50:48.225Z,5.70
2023-05-25T07:53:15.997Z,6.30
2023-05-25T07:55:44.006Z,7.63
2023-05-25T07:58:11.863Z,5.57
2023-05-25T08:00:39.734Z,6.80
2023-05-25T08:03:07.762Z,7.45
2023-05-25T08:05:35.710Z,6.85
2023-05-25T08:08:04.888Z,6.30
2023-05-25T08:10:32.670Z,7.13
2023-05-25T08:13:00.682Z,7.40
2023-05-25T08:15:28.506Z,6.03
2023-05-25T08:17:56.905Z,6.05
2023-05-25T08:20:25.842Z,6.97
2023-05-25T08:22:54.542Z,5.85
2023-05-25T08:25:23.741Z,6.13
2023-05-25T08:27:51.686Z,6.25
2023-05-25T08:30:19.479Z,5.82
2023-05-25T08:32:47.448Z,6.00
2023-05-25T08:35:15.495Z,5.25
2023-05-25T08:37:43.544Z,5.97
2023-05-25T08:40:15.855Z,6.25
2023-05-25T08:42:45.797Z,7.07
2023-05-25T08:45:26.366Z,5.85
2023-05-25T08:48:02.605Z,5.20
2023-05-25T08:50:33.528Z,6.25
2023-05-25T08:53:06.328Z,5.63
2023-05-25T08:55:36.916Z,5.28
2023-05-25T08:58:15.602Z,5.68
2023-05-25T09:00:49.791Z,5.88
2023-05-25T09:03:19.029Z,4.60
2023-05-25T09:05:47.694Z,4.88
2023-05-25T09:08:16.567Z,4.43
2023-05-25T09:10:44.528Z,5.05
2023-05-25T09:13:21.991Z,6.20
2023-05-25T09:15:52.061Z,4.55
2023-05-25T09:18:20.051Z,5.53
2023-05-25T09:20:48.190Z,5.30
2023-05-25T09:23:16.602Z,5.35
2023-05-25T09:25:45.373Z,5.03
2023-05-25T09:30:46.448Z,6.28
2023-05-25T09:33:17.650Z,5.32
2023-05-25T09:35:46.411Z,4.78
2023-05-25T09:38:14.962Z,4.78
2023-05-25T09:40:43.907Z,4.82
2023-05-25T09:43:15.755Z,5.10
2023-05-25T09:45:53.460Z,6.03
2023-05-25T09:48:23.132Z,4.72
2023-05-25T09:50:52.137Z,4.65
2023-05-25T09:53:20.160Z,4.13
2023-05-25T09:55:53.682Z,4.45
2023-05-25T09:58:23.900Z,5.00
2023-05-25T10:00:55.851Z,4.22
2023-05-25T10:03:23.812Z,4.38
2023-05-25T10:05:52.908Z,5.10
2023-05-25T10:08:23.447Z,5.38
2023-05-25T10:10:51.470Z,4.70
2023-05-25T10:13:22.857Z,5.00
2023-05-25T10:15:55.287Z,4.72
2023-05-25T10:18:26.715Z,4.75
2023-05-25T10:21:03.007Z,4.63
2023-05-25T10:23:37.006Z,4.13
2023-05-25T10:26:08.699Z,3.72
2023-05-25T10:28:38.116Z,3.88
2023-05-25T10:31:10.283Z,3.30
2023-05-25T10:33:38.715Z,3.10
2023-05-25T10:36:11.277Z,3.60
2023-05-25T10:38:41.185Z,4.32
2023-05-25T10:41:11.575Z,3.33
2023-05-25T10:43:41.041Z,3.30
2023-05-25T10:46:12.119Z,3.60
2023-05-25T10:48:41.343Z,4.40
2023-05-25T10:51:11.829Z,3.83
2023-05-25T10:53:40.053Z,2.92
2023-05-25T10:56:10.548Z,3.75
2023-05-25T10:58:42.673Z,2.88
2023-05-25T11:01:13.898Z,3.53
2023-05-25T11:03:58.734Z,3.50
2023-05-25T11:06:59.008Z,2.67
2023-05-25T11:09:27.726Z,3.13
2023-05-25T11:12:08.612Z,2.45
2023-05-25T11:14:39.837Z,2.40
2023-05-25T11:17:11.830Z,2.35
2023-05-25T11:19:42.469Z,2.47
2023-05-25T11:22:17.875Z,3.30
2023-05-25T11:24:46.127Z,2.45
2023-05-25T11:27:14.725Z,2.38
2023-05-25T11:29:42.667Z,2.90
2023-05-25T11:32:16.200Z,2.65
2023-05-25T11:34:46.774Z,2.10
2023-05-25T11:37:17.535Z,2.72
2023-05-25T11:39:47.961Z,2.33
2023-05-25T11:42:16.688Z,2.85
2023-05-25T11:44:45.072Z,2.03
2023-05-25T11:47:18.716Z,1.95
2023-05-25T11:49:49.783Z,2.33
2023-05-25T11:52:19.269Z,1.98
2023-05-25T11:54:47.342Z,2.33
2023-05-25T11:57:16.247Z,2.35
2023-05-25T11:59:50.961Z,2.17
2023-05-25T12:02:20.909Z,2.28
2023-05-25T12:04:56.112Z,2.67
2023-05-25T12:07:24.826Z,2.28
2023-05-25T12:09:52.722Z,2.55
2023-05-25T12:12:20.920Z,2.47
2023-05-25T12:14:49.357Z,2.63
2023-05-25T12:17:18.192Z,2.53
2023-05-25T12:19:47.498Z,2.67
2023-05-25T12:22:16.385Z,2.72
2023-05-25T12:24:44.363Z,1.98
2023-05-25T12:27:18.540Z,1.55
2023-05-25T12:29:50.204Z,2.20
2023-05-25T12:32:17.982Z,2.42
2023-05-25T12:34:47.151Z,2.67
2023-05-25T12:37:22.400Z,1.92
2023-05-25T12:39:50.821Z,1.77
2023-05-25T12:42:19.306Z,2.20
2023-05-25T12:44:47.531Z,2.08
2023-05-25T12:47:17.206Z,1.65
2023-05-25T12:49:47.774Z,1.70
2023-05-25T12:52:33.557Z,2.25
2023-05-25T12:55:20.384Z,2.30
2023-05-25T12:57:52.416Z,2.15
2023-05-25T13:00:24.220Z,2.90
2023-05-25T13:02:52.544Z,2.28
2023-05-25T13:05:23.379Z,2.03
2023-05-25T13:07:52.210Z,1.75
2023-05-25T13:10:20.315Z,1.67
2023-05-25T13:12:48.848Z,2.47
2023-05-25T13:15:18.616Z,1.60
2023-05-25T13:17:46.448Z,1.95
2023-05-25T13:20:15.141Z,2.20
2023-05-25T13:22:45.319Z,2.20
2023-05-25T13:25:14.488Z,2.47
2023-05-25T13:27:45.620Z,2.55
2023-05-25T13:30:14.696Z,1.95
2023-05-25T13:32:43.750Z,2.78
2023-05-25T13:35:18.459Z,1.80
2023-05-25T13:37:47.619Z,2.22
2023-05-25T13:40:15.609Z,2.45
2023-05-25T13:42:43.332Z,2.22
2023-05-25T13:45:11.849Z,2.33
2023-05-25T13:47:39.775Z,2.35
2023-05-25T13:50:08.410Z,2.30
2023-05-25T13:52:37.026Z,2.63
2023-05-25T13:55:07.413Z,2.65
2023-05-25T13:57:35.210Z,3.08
2023-05-25T14:00:03.007Z,1.90
2023-05-25T14:02:32.147Z,2.50
2023-05-25T14:05:00.016Z,2.35
2023-05-25T14:07:27.772Z,2.67
2023-05-25T14:09:56.688Z,2.63
2023-05-25T14:12:27.201Z,2.08
2023-05-25T14:14:54.931Z,2.75
2023-05-25T14:17:22.702Z,2.30
2023-05-25T14:19:50.505Z,2.67
2023-05-25T14:22:18.276Z,2.17
2023-05-25T14:24:46.021Z,1.92
2023-05-25T14:27:15.992Z,1.73
2023-05-25T14:29:45.155Z,2.40
2023-05-25T14:32:14.480Z,2.25
2023-05-25T14:34:42.792Z,2.45
2023-05-25T14:37:11.143Z,1.73
2023-05-25T14:39:39.080Z,1.60
2023-05-25T14:42:07.101Z,1.80
2023-05-25T14:44:34.866Z,2.90
2023-05-25T14:47:04.179Z,2.00
2023-05-25T14:49:32.348Z,2.50
2023-05-25T14:52:00.101Z,2.00
2023-05-25T14:54:27.865Z,2.08
2023-05-25T14:56:55.610Z,2.45
2023-05-25T14:59:23.415Z,2.40
2023-05-25T15:01:52.707Z,2.35
2023-05-25T15:04:22.082Z,2.22
2023-05-25T15:06:49.913Z,2.92
2023-05-25T15:09:19.228Z,2.15
2023-05-25T15:11:47.063Z,2.10
2023-05-25T15:14:16.289Z,2.47
2023-05-25T15:16:44.339Z,2.38
2023-05-25T15:19:13.919Z,2.45
2023-05-25T15:21:45.146Z,2.45
2023-05-25T15:24:16.563Z,2.15
2023-05-25T15:26:44.448Z,2.20
2023-05-25T15:29:12.884Z,2.88
2023-05-25T15:31:40.765Z,2.22
2023-05-25T15:34:09.158Z,2.05
2023-05-25T15:36:36.996Z,3.15
2023-05-25T15:39:08.916Z,2.00
2023-05-25T15:41:36.834Z,2.33
2023-05-25T15:44:08.232Z,3.28
2023-05-25T15:46:36.289Z,2.97
2023-05-25T15:49:10.748Z,1.75
2023-05-25T15:51:43.778Z,2.33
2023-05-25T15:54:14.861Z,2.63
2023-05-25T15:56:42.990Z,2.28
2023-05-25T15:59:12.688Z,1.83
2023-05-25T16:01:40.881Z,3.03
2023-05-25T16:04:09.165Z,1.85
2023-05-25T16:06:38.374Z,1.70
2023-05-25T16:09:06.691Z,1.98
2023-05-25T16:11:35.865Z,2.05
2023-05-25T16:14:03.773Z,1.45
2023-05-25T16:16:31.637Z,1.88
2023-05-25T16:18:59.511Z,2.15
2023-05-25T16:21:27.278Z,2.33
2023-05-25T16:23:55.026Z,2.03
2023-05-25T16:26:22.808Z,2.20
2023-05-25T16:28:52.398Z,2.50
2023-05-25T16:31:20.229Z,1.85
2023-05-25T16:33:48.059Z,2.03
2023-05-25T16:36:17.035Z,1.85
2023-05-25T16:38:45.796Z,1.77
2023-05-25T16:41:13.717Z,2.20
2023-05-25T16:43:41.537Z,2.70
2023-05-25T16:46:10.687Z,1.92
2023-05-25T16:48:38.457Z,2.63
2023-05-25T16:51:07.346Z,2.60
2023-05-25T16:53:35.303Z,1.60
2023-05-25T16:56:03.070Z,2.67
2023-05-25T16:58:30.979Z,2.42
2023-05-25T17:00:58.760Z,2.20
2023-05-25T17:03:28.006Z,2.88
2023-05-25T17:05:55.916Z,2.55
2023-05-25T17:08:23.661Z,2.40
2023-05-25T17:10:51.502Z,2.63
2023-05-25T17:13:19.267Z,2.60
2023-05-25T17:15:47.334Z,1.98
2023-05-25T17:18:15.801Z,2.00
2023-05-25T17:20:45.302Z,2.22
2023-05-25T17:23:13.103Z,2.47
2023-05-25T17:25:40.884Z,2.22
2023-05-25T17:28:08.918Z,2.97
2023-05-25T17:30:36.867Z,2.30
2023-05-25T17:33:04.838Z,3.25
2023-05-25T17:35:32.808Z,3.58
2023-05-25T17:38:01.931Z,1.92
2023-05-25T17:40:29.794Z,2.85
2023-05-25T17:42:57.605Z,3.17
2023-05-25T17:45:25.526Z,3.17
2023-05-25T17:47:53.337Z,4.15
2023-05-25T17:50:21.115Z,2.70
2023-05-25T17:52:48.837Z,2.58
2023-05-25T17:55:17.981Z,3.78
2023-05-25T17:57:45.804Z,2.58
2023-05-25T18:00:15.521Z,3.10
2023-05-25T18:02:43.374Z,3.65
2023-05-25T18:05:11.136Z,2.78
2023-05-25T18:07:38.900Z,3.25
2023-05-25T18:10:07.288Z,3.75
2023-05-25T18:12:36.514Z,2.35
2023-05-25T18:15:04.412Z,2.95
2023-05-25T18:17:32.225Z,2.72
2023-05-25T18:20:00.154Z,2.65
2023-05-25T18:22:27.999Z,2.42
2023-05-25T18:24:55.810Z,3.72
2023-05-25T18:27:23.595Z,3.40
2023-05-25T18:29:52.656Z,4.00
2023-05-25T18:32:20.514Z,3.25
2023-05-25T18:34:48.533Z,2.33
2023-05-25T18:37:16.291Z,2.92
2023-05-25T18:39:44.048Z,4.28
2023-05-25T18:42:11.764Z,3.33
2023-05-25T18:44:40.125Z,3.13
2023-05-25T18:47:09.302Z,3.72
2023-05-25T18:49:37.996Z,3.20
2023-05-25T18:52:06.526Z,3.08
2023-05-25T18:54:34.215Z,3.10
2023-05-25T18:57:03.028Z,2.90
2023-05-25T18:59:31.501Z,2.55
2023-05-25T19:01:59.291Z,3.25
2023-05-25T19:04:28.496Z,4.68
2023-05-25T19:06:56.273Z,3.38
2023-05-25T19:09:23.987Z,3.75
2023-05-25T19:11:51.825Z,3.35
2023-05-25T19:14:19.679Z,3.38
2023-05-25T19:16:48.717Z,3.40
2023-05-25T19:19:16.929Z,2.83
2023-05-25T19:21:46.274Z,3.60
2023-05-25T19:24:14.051Z,3.22
2023-05-25T19:26:41.812Z,3.80
2023-05-25T19:29:09.611Z,3.70
2023-05-25T19:31:37.530Z,3.50
2023-05-25T19:34:05.306Z,3.53
2023-05-25T19:36:33.189Z,3.00
2023-05-25T19:39:02.313Z,4.00
2023-05-25T19:41:30.193Z,3.63
2023-05-25T19:43:57.981Z,4.13
2023-05-25T19:46:25.756Z,2.40
2023-05-25T19:48:53.583Z,3.85
2023-05-25T19:51:21.519Z,3.25
2023-05-25T19:53:51.336Z,3.60
2023-05-25T19:56:21.298Z,3.50
2023-05-25T19:58:49.439Z,3.33
2023-05-25T20:01:17.449Z,3.58
2023-05-25T20:03:45.834Z,3.28
2023-05-25T20:06:13.744Z,3.53
2023-05-25T20:08:41.514Z,2.95
2023-05-25T20:11:09.235Z,3.08
2023-05-25T20:13:38.456Z,3.42
2023-05-25T20:16:09.976Z,4.35
2023-05-25T20:18:38.121Z,3.78
2023-05-25T20:21:06.201Z,3.88
2023-05-25T20:23:33.917Z,4.40
2023-05-25T20:26:01.678Z,3.47
2023-05-25T20:28:29.466Z,3.63
2023-05-25T20:30:58.575Z,3.78
2023-05-25T20:33:26.332Z,3.35
2023-05-25T20:35:54.064Z,4.35
2023-05-25T20:38:21.779Z,3.15
2023-05-25T20:40:49.539Z,4.65
2023-05-25T20:43:17.330Z,3.13
2023-05-25T20:45:45.238Z,4.07
2023-05-25T20:48:15.453Z,3.45
2023-05-25T20:50:43.192Z,4.07
2023-05-25T20:53:11.616Z,2.97
2023-05-25T20:55:39.457Z,4.03
2023-05-25T20:58:07.225Z,3.70
2023-05-25T21:00:35.313Z,3.25
2023-05-25T21:03:04.855Z,3.78
2023-05-25T21:05:34.064Z,4.30
2023-05-25T21:08:03.446Z,4.00
2023-05-25T21:10:31.279Z,4.78
2023-05-25T21:12:59.031Z,3.40
2023-05-25T21:15:27.469Z,4.57
2023-05-25T21:17:55.347Z,3.22
2023-05-25T21:20:23.200Z,4.03
2023-05-25T21:22:52.373Z,3.53
2023-05-25T21:25:20.159Z,4.00
2023-05-25T21:27:48.012Z,4.75
2023-05-25T21:30:16.112Z,4.57
2023-05-25T21:32:43.950Z,3.88
2023-05-25T21:35:11.779Z,3.95
2023-05-25T21:37:39.576Z,4.28
2023-05-25T21:40:09.747Z,4.40
2023-05-25T21:42:37.509Z,4.10
2023-05-25T21:45:05.951Z,3.75
2023-05-25T21:47:33.975Z,4.50
2023-05-25T21:50:01.806Z,4.25
2023-05-25T21:52:29.567Z,4.07
2023-05-25T21:54:57.921Z,3.72
2023-05-25T21:57:27.039Z,5.55
2023-05-25T21:59:54.919Z,4.75
2023-05-25T22:02:24.330Z,3.53
2023-05-25T22:04:52.225Z,4.75
2023-05-25T22:07:19.991Z,4.57
2023-05-25T22:09:47.713Z,4.68
2023-05-25T22:12:15.453Z,3.35
2023-05-25T22:14:44.598Z,3.83
2023-05-25T22:17:12.743Z,5.07
2023-05-25T22:19:41.829Z,4.38
2023-05-25T22:22:11.081Z,3.42
2023-05-25T22:24:38.865Z,3.83
2023-05-25T22:27:07.585Z,5.53
2023-05-25T22:29:35.300Z,4.22
2023-05-25T22:32:04.610Z,4.55
2023-05-25T22:34:32.351Z,4.45
2023-05-25T22:37:00.127Z,3.70
2023-05-25T22:39:27.902Z,4.35
2023-05-25T22:41:55.809Z,4.85
2023-05-25T22:44:23.561Z,4.30
2023-05-25T22:46:51.471Z,4.45
2023-05-25T22:49:20.746Z,4.88
2023-05-25T22:51:48.566Z,4.93
2023-05-25T22:54:16.375Z,4.00
2023-05-25T22:56:44.149Z,4.95
2023-05-25T22:59:12.299Z,4.78
2023-05-25T23:01:40.162Z,5.38
2023-05-25T23:04:08.914Z,5.18
2023-05-25T23:06:38.218Z,4.60
2023-05-25T23:09:05.997Z,5.32
2023-05-25T23:11:33.717Z,4.05
2023-05-25T23:14:01.758Z,4.60
2023-05-25T23:16:29.723Z,4.38
2023-05-25T23:18:57.632Z,5.13
2023-05-25T23:21:25.402Z,4.20
2023-05-25T23:23:54.570Z,5.07
2023-05-25T23:26:22.341Z,4.85
2023-05-25T23:28:50.134Z,5.00
2023-05-25T23:31:18.051Z,5.75
2023-05-25T23:33:45.882Z,5.75
2023-05-25T23:36:14.091Z,4.60
2023-05-25T23:38:41.947Z,5.00
2023-05-25T23:41:11.113Z,4.53
2023-05-25T23:43:38.873Z,5.45
2023-05-25T23:46:07.324Z,5.18
2023-05-25T23:48:35.128Z,5.47
2023-05-25T23:51:02.844Z,5.80
2023-05-25T23:53:30.599Z,5.18
2023-05-25T23:55:58.367Z,6.30
2023-05-25T23:58:27.467Z,6.68
